createdAt,value
2018-12-06T00:01:00.494Z,92.20
2018-12-06T00:03:29.487Z,91.70
2018-12-06T00:05:58.460Z,91.80
2018-12-06T00:08:26.734Z,91.80
2018-12-06T00:10:54.933Z,91.60
2018-12-06T00:13:23.918Z,91.90
2018-12-06T00:15:52.944Z,91.00
2018-12-06T00:18:21.172Z,90.90
2018-12-06T00:20:49.420Z,92.70
2018-12-06T00:23:17.693Z,91.30
2018-12-06T00:25:45.889Z,92.30
2018-12-06T00:28:14.151Z,93.30
2018-12-06T00:30:42.350Z,92.70
2018-12-06T00:33:10.603Z,92.80
2018-12-06T00:35:38.854Z,92.40
2018-12-06T00:38:07.110Z,91.40
2018-12-06T00:40:36.181Z,92.50
2018-12-06T00:43:04.446Z,92.60
2018-12-06T00:45:32.693Z,91.90
2018-12-06T00:48:00.927Z,92.10
2018-12-06T00:50:29.174Z,91.70
2018-12-06T00:52:57.420Z,92.00
2018-12-06T00:55:25.649Z,92.50
2018-12-06T00:57:53.905Z,92.30
2018-12-06T01:00:22.171Z,92.10
2018-12-06T01:02:50.384Z,91.20
2018-12-06T01:05:18.604Z,90.10
2018-12-06T01:07:46.860Z,84.70
2018-12-06T01:10:15.105Z,91.80
2018-12-06T01:12:43.370Z,92.10
2018-12-06T01:15:11.625Z,91.60
2018-12-06T01:17:39.894Z,86.50
2018-12-06T01:20:08.088Z,91.00
2018-12-06T01:22:36.361Z,87.90
2018-12-06T01:25:04.564Z,91.20
2018-12-06T01:27:32.851Z,90.70
2018-12-06T01:30:01.109Z,91.50
2018-12-06T01:32:29.310Z,84.60
2018-12-06T01:34:58.317Z,90.10
2018-12-06T01:37:26.527Z,90.30
2018-12-06T01:39:54.784Z,92.40
2018-12-06T01:42:22.991Z,91.40
2018-12-06T01:44:51.263Z,92.00
2018-12-06T01:47:19.511Z,90.30
2018-12-06T01:49:47.738Z,92.10
2018-12-06T01:52:15.948Z,91.80
2018-12-06T01:54:44.936Z,82.80
2018-12-06T01:57:13.924Z,88.10
2018-12-06T01:59:42.950Z,91.50
2018-12-06T02:02:11.199Z,91.40
2018-12-06T02:04:40.242Z,91.30
2018-12-06T02:07:08.449Z,91.30
2018-12-06T02:09:36.678Z,91.80
2018-12-06T02:12:04.904Z,91.90
2018-12-06T02:14:33.114Z,91.90
2018-12-06T02:17:02.281Z,92.00
2018-12-06T02:19:30.501Z,90.70
2018-12-06T02:21:58.724Z,90.80
2018-12-06T02:24:26.936Z,92.00
2018-12-06T02:26:55.228Z,89.90
2018-12-06T02:29:23.416Z,90.70
2018-12-06T02:31:51.690Z,91.20
2018-12-06T02:34:19.954Z,89.90
2018-12-06T02:36:48.164Z,91.60
2018-12-06T02:39:16.447Z,91.70
2018-12-06T02:41:44.658Z,91.20
2018-12-06T02:44:13.729Z,91.70
2018-12-06T02:46:41.929Z,91.70
2018-12-06T02:49:10.928Z,91.80
2018-12-06T02:51:39.925Z,90.30
2018-12-06T02:54:08.888Z,88.70
2018-12-06T02:56:37.127Z,89.20
2018-12-06T02:59:05.371Z,90.70
2018-12-06T03:01:34.420Z,92.20
2018-12-06T03:04:02.654Z,92.10
2018-12-06T03:06:30.884Z,90.40
2018-12-06T03:08:59.142Z,91.40
2018-12-06T03:11:27.399Z,90.10
2018-12-06T03:13:55.671Z,91.30
2018-12-06T03:16:23.893Z,91.70
2018-12-06T03:18:52.114Z,90.00
2018-12-06T03:21:20.363Z,91.40
2018-12-06T03:23:48.591Z,91.50
2018-12-06T03:26:16.845Z,91.50
2018-12-06T03:28:45.112Z,91.90
2018-12-06T03:31:14.121Z,91.70
2018-12-06T03:33:42.377Z,91.70
2018-12-06T03:36:11.503Z,90.40
2018-12-06T03:38:39.704Z,90.50
2018-12-06T03:41:07.901Z,92.30
2018-12-06T03:43:36.341Z,92.20
2018-12-06T03:46:04.568Z,92.30
2018-12-06T03:48:32.850Z,92.50
2018-12-06T03:51:01.062Z,92.60
2018-12-06T03:53:29.326Z,91.60
2018-12-06T03:55:58.347Z,92.80
2018-12-06T03:58:26.590Z,92.80
2018-12-06T04:00:55.615Z,93.20
2018-12-06T04:03:23.863Z,93.20
2018-12-06T04:05:52.895Z,93.40
2018-12-06T04:08:21.098Z,93.50
2018-12-06T04:10:49.368Z,93.80
2018-12-06T04:13:17.623Z,95.40
2018-12-06T04:15:45.895Z,94.20
2018-12-06T04:18:14.155Z,94.60
2018-12-06T04:20:42.417Z,94.50
2018-12-06T04:23:11.436Z,95.00
2018-12-06T04:25:39.694Z,95.00
2018-12-06T04:28:07.954Z,95.10
2018-12-06T04:30:36.964Z,95.20
2018-12-06T04:33:05.942Z,95.20
2018-12-06T04:35:34.971Z,95.70
2018-12-06T04:38:03.239Z,95.80
2018-12-06T04:40:31.485Z,97.30
2018-12-06T04:42:59.736Z,97.40
2018-12-06T04:45:27.958Z,96.10
2018-12-06T04:47:56.991Z,95.40
2018-12-06T04:50:25.299Z,95.50
2018-12-06T04:52:53.607Z,95.40
2018-12-06T04:55:22.588Z,99.50
2018-12-06T04:57:51.632Z,99.80
2018-12-06T05:00:19.890Z,99.70
2018-12-06T05:02:48.161Z,99.90
2018-12-06T05:05:16.362Z,99.10
2018-12-06T05:07:44.645Z,98.90
2018-12-06T05:10:12.858Z,97.20
2018-12-06T05:12:41.084Z,97.60
2018-12-06T05:15:09.341Z,97.10
2018-12-06T05:17:37.605Z,97.30
2018-12-06T05:20:06.625Z,99.90
2018-12-06T05:22:34.892Z,99.90
2018-12-06T05:25:03.174Z,99.90
2018-12-06T05:27:32.196Z,98.90
2018-12-06T05:30:01.181Z,97.20
2018-12-06T05:32:29.401Z,97.10
2018-12-06T05:34:58.388Z,97.50
2018-12-06T05:37:26.666Z,97.50
2018-12-06T05:39:54.917Z,97.30
2018-12-06T05:42:23.131Z,98.00
2018-12-06T05:44:52.155Z,97.90
2018-12-06T05:47:20.431Z,97.90
2018-12-06T05:49:48.674Z,97.80
2018-12-06T05:52:16.894Z,99.90
2018-12-06T05:54:45.108Z,97.80
2018-12-06T05:57:13.383Z,97.30
2018-12-06T05:59:41.639Z,98.90
2018-12-06T06:02:09.891Z,97.80
2018-12-06T06:04:38.207Z,99.90
2018-12-06T06:07:06.404Z,98.50
2018-12-06T06:09:34.649Z,99.90
2018-12-06T06:12:02.850Z,98.00
2018-12-06T06:14:31.144Z,98.30
2018-12-06T06:17:00.172Z,98.70
2018-12-06T06:19:28.431Z,98.70
2018-12-06T06:21:56.632Z,99.90
2018-12-06T06:24:24.911Z,98.40
2018-12-06T06:26:53.123Z,99.90
2018-12-06T06:29:21.353Z,99.90
2018-12-06T06:31:49.554Z,99.90
2018-12-06T06:34:18.621Z,99.40
2018-12-06T06:36:46.820Z,99.40
2018-12-06T06:39:15.073Z,99.90
2018-12-06T06:41:43.307Z,99.80
2018-12-06T06:44:11.514Z,99.40
2018-12-06T06:46:39.777Z,99.90
2018-12-06T06:49:13.842Z,99.60
2018-12-06T06:51:37.058Z,99.60
2018-12-06T06:54:06.079Z,99.90
2018-12-06T06:56:34.320Z,99.90
2018-12-06T06:59:02.560Z,99.90
2018-12-06T07:01:30.783Z,99.90
2018-12-06T07:03:58.996Z,99.90
2018-12-06T07:06:27.266Z,99.90
2018-12-06T07:08:55.484Z,99.10
2018-12-06T07:11:23.736Z,98.90
2018-12-06T07:13:52.725Z,99.30
2018-12-06T07:16:20.930Z,99.90
2018-12-06T07:18:49.171Z,99.90
2018-12-06T07:21:17.418Z,99.90
2018-12-06T07:23:45.671Z,99.90
2018-12-06T07:26:13.885Z,99.90
2018-12-06T07:28:42.149Z,99.90
2018-12-06T07:31:10.392Z,99.90
2018-12-06T07:33:38.662Z,99.90
2018-12-06T07:36:06.912Z,99.90
2018-12-06T07:38:35.175Z,99.90
2018-12-06T07:41:03.419Z,99.90
2018-12-06T07:43:32.472Z,99.90
2018-12-06T07:46:07.192Z,99.90
2018-12-06T07:48:35.450Z,99.90
2018-12-06T07:51:03.786Z,99.90
2018-12-06T07:53:32.044Z,99.90
2018-12-06T07:56:01.181Z,99.90
2018-12-06T07:58:30.204Z,99.90
2018-12-06T08:00:58.482Z,99.90
2018-12-06T08:03:26.748Z,99.90
2018-12-06T08:05:55.015Z,99.90
2018-12-06T08:08:23.225Z,99.90
2018-12-06T08:10:51.474Z,99.90
2018-12-06T08:13:19.739Z,99.90
2018-12-06T08:15:48.054Z,99.90
2018-12-06T08:18:17.044Z,99.90
2018-12-06T08:20:45.347Z,99.90
2018-12-06T08:23:13.612Z,99.90
2018-12-06T08:25:41.836Z,99.90
2018-12-06T08:28:10.049Z,99.90
2018-12-06T08:30:38.333Z,99.90
2018-12-06T08:33:06.592Z,99.90
2018-12-06T08:35:34.817Z,99.90
2018-12-06T08:38:03.993Z,99.90
2018-12-06T08:40:32.225Z,99.90
2018-12-06T08:43:00.473Z,99.90
2018-12-06T08:45:28.688Z,99.90
2018-12-06T08:47:56.924Z,99.90
2018-12-06T08:50:25.966Z,99.90
2018-12-06T08:52:54.480Z,99.90
2018-12-06T08:55:23.468Z,99.90
2018-12-06T08:57:51.712Z,99.90
2018-12-06T09:00:19.960Z,99.90
2018-12-06T09:02:49.018Z,99.90
2018-12-06T09:05:17.256Z,99.90
2018-12-06T09:07:45.517Z,99.90
2018-12-06T09:10:14.490Z,99.90
2018-12-06T09:12:43.482Z,99.90
2018-12-06T09:15:11.759Z,99.90
2018-12-06T09:17:39.970Z,99.90
2018-12-06T09:20:08.208Z,99.90
2018-12-06T09:22:36.450Z,99.90
2018-12-06T09:25:05.620Z,99.90
2018-12-06T09:27:35.196Z,99.90
2018-12-06T09:30:04.176Z,99.90
2018-12-06T09:32:32.447Z,99.90
2018-12-06T09:35:00.698Z,99.90
2018-12-06T09:37:29.122Z,99.90
2018-12-06T09:39:57.313Z,99.90
2018-12-06T09:42:26.308Z,99.90
2018-12-06T09:44:55.289Z,99.90
2018-12-06T09:47:24.320Z,99.90
2018-12-06T09:49:52.574Z,99.90
2018-12-06T09:52:21.604Z,99.90
2018-12-06T09:54:49.814Z,99.90
2018-12-06T09:57:18.084Z,99.90
2018-12-06T09:59:46.984Z,99.90
2018-12-06T10:02:15.871Z,99.90
2018-12-06T10:04:44.132Z,99.90
2018-12-06T10:07:12.346Z,99.90
2018-12-06T10:09:41.336Z,99.90
2018-12-06T10:12:10.312Z,99.90
2018-12-06T10:14:38.606Z,99.90
2018-12-06T10:17:06.860Z,99.90
2018-12-06T10:19:35.117Z,99.90
2018-12-06T10:22:03.367Z,99.90
2018-12-06T10:24:31.693Z,99.90
2018-12-06T10:26:59.958Z,99.90
2018-12-06T10:29:28.941Z,99.90
2018-12-06T10:31:57.208Z,99.90
2018-12-06T10:34:25.477Z,99.90
2018-12-06T10:36:53.742Z,99.90
2018-12-06T10:39:22.757Z,99.90
2018-12-06T10:41:51.004Z,99.90
2018-12-06T10:44:23.426Z,99.90
2018-12-06T10:46:51.681Z,99.90
2018-12-06T10:49:19.957Z,99.90
2018-12-06T10:51:48.201Z,99.90
2018-12-06T10:54:17.234Z,99.90
2018-12-06T10:56:45.491Z,99.90
2018-12-06T10:59:14.528Z,99.90
2018-12-06T11:01:46.658Z,99.90
2018-12-06T11:04:14.968Z,99.90
2018-12-06T11:06:43.202Z,99.90
2018-12-06T11:09:12.185Z,99.90
2018-12-06T11:11:41.164Z,99.90
2018-12-06T11:14:09.429Z,99.90
2018-12-06T11:16:37.909Z,99.90
2018-12-06T11:19:06.428Z,99.90
2018-12-06T11:21:34.647Z,99.90
2018-12-06T11:24:02.902Z,99.90
2018-12-06T11:26:31.127Z,99.90
2018-12-06T11:28:59.323Z,99.90
2018-12-06T11:31:28.367Z,99.90
2018-12-06T11:33:56.578Z,99.90
2018-12-06T11:36:24.807Z,99.90
2018-12-06T11:38:53.068Z,99.90
2018-12-06T11:41:22.974Z,99.90
2018-12-06T11:43:51.228Z,99.90
2018-12-06T11:46:19.485Z,99.90
2018-12-06T11:48:47.731Z,99.90
2018-12-06T11:51:16.004Z,99.90
2018-12-06T11:53:44.225Z,99.90
2018-12-06T11:56:12.442Z,99.90
2018-12-06T11:58:40.707Z,99.90
2018-12-06T12:01:09.780Z,99.90
2018-12-06T12:03:38.048Z,99.90
2018-12-06T12:06:06.297Z,99.90
2018-12-06T12:08:34.562Z,99.90
2018-12-06T12:11:02.777Z,99.90
2018-12-06T12:13:31.064Z,99.90
2018-12-06T12:15:59.266Z,99.90
2018-12-06T12:18:28.302Z,99.90
2018-12-06T12:20:56.514Z,99.90
2018-12-06T12:23:25.069Z,99.90
2018-12-06T12:25:53.340Z,99.90
2018-12-06T12:28:21.590Z,99.90
2018-12-06T12:30:49.841Z,99.90
2018-12-06T12:33:18.861Z,99.90
2018-12-06T12:35:47.139Z,99.90
2018-12-06T12:38:15.405Z,99.90
2018-12-06T12:40:44.452Z,99.90
2018-12-06T12:43:12.646Z,99.90
2018-12-06T12:45:41.645Z,99.90
2018-12-06T12:48:09.855Z,99.90
2018-12-06T12:50:38.877Z,99.90
2018-12-06T12:53:07.123Z,99.90
2018-12-06T12:55:35.364Z,99.90
2018-12-06T12:58:03.619Z,99.90
2018-12-06T13:00:31.975Z,99.90
2018-12-06T13:03:00.255Z,99.90
2018-12-06T13:05:28.541Z,99.90
2018-12-06T13:07:57.587Z,99.90
2018-12-06T13:10:25.866Z,99.90
2018-12-06T13:12:54.984Z,99.90
2018-12-06T13:15:23.260Z,99.90
2018-12-06T13:17:51.730Z,99.90
2018-12-06T13:20:20.739Z,99.90
2018-12-06T13:22:49.033Z,99.90
2018-12-06T13:25:17.263Z,99.90
2018-12-06T13:27:45.508Z,99.90
2018-12-06T13:30:13.726Z,99.90
2018-12-06T13:32:43.550Z,99.90
2018-12-06T13:35:12.684Z,99.90
2018-12-06T13:37:40.897Z,99.90
2018-12-06T13:40:09.491Z,99.90
2018-12-06T13:42:37.721Z,99.90
2018-12-06T13:45:05.945Z,99.90
2018-12-06T13:47:34.238Z,99.90
2018-12-06T13:50:03.216Z,99.90
2018-12-06T13:52:32.229Z,99.90
2018-12-06T13:55:00.459Z,99.90
2018-12-06T13:57:28.663Z,99.90
2018-12-06T13:59:56.938Z,99.90
2018-12-06T14:02:25.951Z,99.90
2018-12-06T14:04:54.259Z,99.90
2018-12-06T14:07:22.510Z,99.90
2018-12-06T14:09:50.810Z,99.90
2018-12-06T14:12:19.053Z,99.90
2018-12-06T14:14:47.277Z,99.90
2018-12-06T14:17:15.557Z,99.90
2018-12-06T14:19:43.851Z,99.90
2018-12-06T14:22:12.234Z,99.90
2018-12-06T14:24:40.604Z,99.90
2018-12-06T14:27:08.924Z,99.90
2018-12-06T14:29:38.028Z,99.90
2018-12-06T14:32:06.341Z,99.90
2018-12-06T14:34:34.607Z,99.90
2018-12-06T14:37:02.889Z,99.90
2018-12-06T14:39:31.157Z,99.90
2018-12-06T14:41:59.431Z,99.90
2018-12-06T14:44:27.810Z,99.90
2018-12-06T14:46:56.084Z,99.90
2018-12-06T14:49:24.326Z,99.90
2018-12-06T14:51:53.362Z,99.90
2018-12-06T14:54:21.637Z,99.90
2018-12-06T14:56:50.039Z,99.90
2018-12-06T14:59:18.629Z,99.90
2018-12-06T15:01:47.237Z,99.90
2018-12-06T15:04:15.535Z,99.90
2018-12-06T15:06:44.796Z,99.90
2018-12-06T15:09:13.555Z,99.90
2018-12-06T15:11:41.842Z,99.90
2018-12-06T15:14:10.101Z,99.90
2018-12-06T15:16:38.314Z,99.90
2018-12-06T15:19:06.600Z,99.90
2018-12-06T15:21:34.811Z,99.90
2018-12-06T15:24:03.096Z,99.90
2018-12-06T15:26:31.322Z,99.90
2018-12-06T15:28:59.553Z,99.90
2018-12-06T15:31:27.779Z,99.90
2018-12-06T15:33:56.053Z,99.90
2018-12-06T15:36:24.402Z,99.90
2018-12-06T15:38:52.657Z,99.90
2018-12-06T15:41:20.894Z,99.90
2018-12-06T15:43:49.176Z,99.90
2018-12-06T15:46:17.408Z,99.90
2018-12-06T15:48:45.678Z,99.90
2018-12-06T15:51:13.961Z,99.90
2018-12-06T15:53:42.232Z,99.90
2018-12-06T15:56:10.464Z,99.90
2018-12-06T15:58:38.680Z,99.90
2018-12-06T16:01:06.931Z,99.90
2018-12-06T16:03:35.943Z,99.90
2018-12-06T16:06:04.149Z,99.90
2018-12-06T16:08:32.441Z,99.90
2018-12-06T16:11:00.707Z,99.90
2018-12-06T16:13:29.585Z,99.90
2018-12-06T16:15:57.861Z,99.90
2018-12-06T16:18:28.783Z,99.90
2018-12-06T16:20:57.017Z,99.90
2018-12-06T16:23:25.255Z,99.90
2018-12-06T16:25:53.532Z,99.90
2018-12-06T16:28:21.735Z,99.90
2018-12-06T16:30:50.018Z,99.90
2018-12-06T16:33:18.275Z,99.90
2018-12-06T16:35:46.595Z,99.90
2018-12-06T16:38:14.739Z,99.90
2018-12-06T16:40:43.029Z,99.90
2018-12-06T16:43:11.252Z,99.90
2018-12-06T16:45:39.499Z,99.90
2018-12-06T16:48:08.502Z,99.90
2018-12-06T16:50:36.708Z,99.90
2018-12-06T16:53:04.970Z,99.90
2018-12-06T16:55:33.185Z,99.90
2018-12-06T16:58:02.157Z,99.90
2018-12-06T17:00:30.426Z,99.90
2018-12-06T17:02:58.718Z,99.90
2018-12-06T17:05:26.928Z,99.90
2018-12-06T17:07:55.224Z,99.90
2018-12-06T17:10:24.264Z,99.90
2018-12-06T17:12:52.494Z,99.90
2018-12-06T17:15:21.501Z,99.90
2018-12-06T17:17:49.779Z,99.90
2018-12-06T17:20:18.788Z,99.90
2018-12-06T17:22:47.076Z,99.90
2018-12-06T17:25:15.351Z,99.90
2018-12-06T17:27:43.622Z,99.90
2018-12-06T17:30:11.911Z,99.90
2018-12-06T17:32:41.047Z,99.90
2018-12-06T17:35:10.053Z,99.90
2018-12-06T17:37:39.332Z,99.90
2018-12-06T17:40:07.520Z,99.90
2018-12-06T17:42:35.762Z,99.90
2018-12-06T17:45:04.067Z,99.90
2018-12-06T17:47:32.515Z,99.90
2018-12-06T17:50:01.071Z,99.90
2018-12-06T17:52:30.374Z,99.90
2018-12-06T17:54:59.638Z,99.90
2018-12-06T17:57:28.035Z,99.90
2018-12-06T17:59:56.610Z,99.90
2018-12-06T18:02:25.022Z,99.90
2018-12-06T18:04:54.604Z,99.90
2018-12-06T18:07:23.108Z,99.90
2018-12-06T18:09:52.313Z,99.90
2018-12-06T18:12:21.480Z,99.90
2018-12-06T18:14:49.974Z,99.90
2018-12-06T18:17:18.381Z,99.90
2018-12-06T18:19:46.744Z,99.90
2018-12-06T18:22:15.082Z,99.90
2018-12-06T18:24:43.275Z,99.90
2018-12-06T18:27:11.504Z,99.90
2018-12-06T18:29:39.785Z,99.90
2018-12-06T18:32:08.069Z,99.90
2018-12-06T18:34:36.325Z,99.90
2018-12-06T18:37:04.552Z,99.90
2018-12-06T18:39:33.754Z,99.90
2018-12-06T18:42:02.035Z,99.90
2018-12-06T18:44:30.517Z,99.90
2018-12-06T18:46:58.793Z,99.90
2018-12-06T18:49:27.043Z,99.90
2018-12-06T18:51:55.386Z,99.90
2018-12-06T18:54:23.640Z,99.90
2018-12-06T18:56:52.662Z,99.90
2018-12-06T18:59:20.944Z,99.90
2018-12-06T19:01:49.420Z,99.90
2018-12-06T19:04:17.468Z,99.90
2018-12-06T19:06:46.480Z,99.90
2018-12-06T19:09:14.730Z,99.90
2018-12-06T19:11:42.985Z,99.90
2018-12-06T19:14:11.261Z,99.90
2018-12-06T19:16:39.503Z,99.90
2018-12-06T19:19:07.802Z,99.90
2018-12-06T19:21:36.029Z,99.90
2018-12-06T19:24:04.314Z,99.90
2018-12-06T19:26:33.376Z,99.90
2018-12-06T19:29:02.637Z,99.90
2018-12-06T19:31:30.918Z,99.90
2018-12-06T19:33:59.174Z,99.90
2018-12-06T19:36:28.242Z,99.90
2018-12-06T19:38:56.461Z,99.90
2018-12-06T19:41:24.749Z,99.90
2018-12-06T19:43:52.976Z,99.90
2018-12-06T19:46:22.031Z,99.90
2018-12-06T19:48:50.309Z,99.90
2018-12-06T19:51:18.798Z,99.90
2018-12-06T19:53:47.053Z,99.90
2018-12-06T19:56:15.273Z,99.90
2018-12-06T19:58:44.290Z,99.90
2018-12-06T20:01:12.538Z,99.90
2018-12-06T20:03:40.834Z,99.90
2018-12-06T20:06:09.872Z,99.90
2018-12-06T20:08:38.164Z,99.90
2018-12-06T20:11:06.395Z,99.90
2018-12-06T20:13:36.260Z,99.90
2018-12-06T20:16:04.675Z,99.90
2018-12-06T20:18:33.794Z,99.90
2018-12-06T20:21:02.810Z,99.90
2018-12-06T20:23:31.060Z,99.90
2018-12-06T20:25:59.383Z,99.90
2018-12-06T20:28:27.625Z,99.90
2018-12-06T20:30:55.909Z,99.90
2018-12-06T20:33:24.619Z,99.90
2018-12-06T20:35:53.065Z,99.90
2018-12-06T20:38:22.157Z,99.90
2018-12-06T20:40:51.306Z,99.90
2018-12-06T20:43:19.626Z,99.90
2018-12-06T20:45:48.048Z,99.90
2018-12-06T20:48:16.386Z,99.90
2018-12-06T20:50:49.350Z,99.90
2018-12-06T20:53:13.340Z,99.90
2018-12-06T20:55:42.227Z,99.90
2018-12-06T20:58:14.998Z,99.90
2018-12-06T21:00:38.424Z,99.90
2018-12-06T21:03:06.647Z,99.90
2018-12-06T21:05:35.806Z,99.90
2018-12-06T21:08:04.227Z,99.90
2018-12-06T21:10:32.743Z,99.90
2018-12-06T21:13:01.383Z,99.90
2018-12-06T21:15:30.224Z,99.90
2018-12-06T21:17:58.576Z,99.90
2018-12-06T21:20:27.641Z,99.90
2018-12-06T21:22:56.222Z,99.90
2018-12-06T21:25:25.348Z,99.90
2018-12-06T21:27:53.765Z,99.90
2018-12-06T21:30:22.160Z,99.90
2018-12-06T21:32:50.400Z,99.90
2018-12-06T21:35:18.709Z,99.90
2018-12-06T21:37:47.015Z,99.90
2018-12-06T21:40:15.232Z,99.90
2018-12-06T21:42:44.250Z,99.90
2018-12-06T21:45:12.674Z,99.90
2018-12-06T21:47:40.976Z,99.90
2018-12-06T21:50:09.998Z,99.90
2018-12-06T21:52:38.421Z,99.90
2018-12-06T21:55:06.827Z,99.90
2018-12-06T21:57:35.197Z,99.90
2018-12-06T22:00:03.623Z,99.90
2018-12-06T22:02:31.873Z,99.90
2018-12-06T22:05:00.931Z,99.90
2018-12-06T22:07:29.173Z,99.90
2018-12-06T22:09:57.393Z,99.90
2018-12-06T22:12:25.651Z,99.90
2018-12-06T22:14:53.870Z,99.90
2018-12-06T22:17:22.873Z,99.90
2018-12-06T22:19:51.083Z,99.90
2018-12-06T22:22:19.375Z,99.90
2018-12-06T22:24:48.348Z,99.90
2018-12-06T22:27:16.606Z,99.90
2018-12-06T22:29:44.884Z,99.90
2018-12-06T22:32:13.086Z,99.90
2018-12-06T22:34:41.317Z,99.90
2018-12-06T22:37:10.306Z,99.90
2018-12-06T22:39:38.562Z,99.90
2018-12-06T22:42:06.784Z,99.90
2018-12-06T22:44:35.031Z,99.90
2018-12-06T22:47:04.018Z,99.90
2018-12-06T22:49:33.045Z,99.90
2018-12-06T22:52:01.423Z,99.90
2018-12-06T22:54:29.573Z,99.90
2018-12-06T22:56:58.587Z,99.90
2018-12-06T22:59:26.827Z,99.90
2018-12-06T23:01:55.062Z,99.90
2018-12-06T23:04:23.315Z,99.90
2018-12-06T23:06:52.359Z,99.90
2018-12-06T23:09:20.553Z,99.90
2018-12-06T23:11:48.798Z,99.90
2018-12-06T23:14:17.068Z,99.90
2018-12-06T23:16:45.347Z,99.90
2018-12-06T23:19:13.568Z,99.90
2018-12-06T23:21:42.638Z,99.90
2018-12-06T23:24:10.851Z,99.90
2018-12-06T23:26:39.829Z,99.90
2018-12-06T23:29:08.892Z,99.90
2018-12-06T23:31:37.874Z,99.90
2018-12-06T23:34:06.105Z,99.90
2018-12-06T23:36:35.137Z,99.90
2018-12-06T23:39:03.379Z,99.90
2018-12-06T23:41:32.421Z,99.90
2018-12-06T23:44:00.690Z,99.90
2018-12-06T23:46:28.957Z,99.90
2018-12-06T23:48:57.217Z,99.90
2018-12-06T23:51:37.422Z,99.90
2018-12-06T23:54:05.662Z,99.90
2018-12-06T23:56:33.875Z,99.90
2018-12-06T23:59:02.146Z,99.90
